Time;durP1;ratioP1;P1;durP2;ratioP2;P2;SDS_P1;SDS_P2;PMS_P1;PMS_P2;Temp;Humidity;BMP_temperature;BMP_pressure;BME280_temperature;BME280_humidity;BME280_pressure;Samples;Min_cycle;Max_cycle;Signal;HPM_P1;HPM_P2
2022/12/20 00:01:12;;;;;;;5.10;1.45;;;;;;;19.09;40.81;101278.94;5019146;28;20097;-68
2022/12/20 00:03:38;;;;;;;2.75;1.15;;;;;;;19.12;40.76;101294.56;5020575;28;20144;-68
2022/12/20 00:06:03;;;;;;;3.85;1.42;;;;;;;19.08;40.87;101288.69;5020818;28;20120;-69
2022/12/20 00:08:29;;;;;;;4.47;1.80;;;;;;;19.09;40.85;101295.66;5020357;28;20095;-68
2022/12/20 00:10:54;;;;;;;3.30;1.48;;;;;;;19.08;40.87;101293.97;5020350;28;20029;-68
2022/12/20 00:13:20;;;;;;;2.47;1.20;;;;;;;19.07;41.12;101296.72;5020081;28;20095;-68
2022/12/20 00:15:45;;;;;;;3.00;1.60;;;;;;;19.07;40.90;101297.56;5020106;28;20041;-67
2022/12/20 00:18:10;;;;;;;4.93;1.70;;;;;;;19.03;40.83;101281.13;5020233;28;20534;-68
2022/12/20 00:20:36;;;;;;;3.38;1.40;;;;;;;18.94;40.64;101273.91;5020294;28;20112;-68
2022/12/20 00:23:01;;;;;;;3.28;1.38;;;;;;;19.01;40.87;101280.41;5020298;28;20029;-68
2022/12/20 00:25:27;;;;;;;4.57;1.30;;;;;;;19.01;41.03;101283.03;5020172;28;20029;-68
2022/12/20 00:27:52;;;;;;;3.67;1.40;;;;;;;18.93;41.05;101261.69;5020158;28;20028;-67
2022/12/20 00:30:17;;;;;;;5.20;1.45;;;;;;;18.96;40.83;101265.84;5020534;28;20398;-67
2022/12/20 00:32:43;;;;;;;3.30;1.50;;;;;;;18.96;41.03;101266.72;5020317;28;20026;-68
2022/12/20 00:35:09;;;;;;;3.45;1.38;;;;;;;18.98;40.82;101264.78;4999173;28;20066;-69
2022/12/20 00:37:34;;;;;;;3.05;1.33;;;;;;;18.96;40.78;101263.22;5002231;28;20054;-68
2022/12/20 00:40:00;;;;;;;4.32;1.60;;;;;;;18.96;40.90;101269.34;5020687;28;20639;-67
2022/12/20 00:42:25;;;;;;;4.68;1.52;;;;;;;18.93;40.88;101252.88;5023207;28;20034;-69
2022/12/20 00:44:50;;;;;;;4.43;1.70;;;;;;;18.92;40.98;101246.78;5022831;28;20033;-66
2022/12/20 00:47:16;;;;;;;3.53;1.60;;;;;;;18.92;40.76;101248.59;5022547;28;20431;-67
2022/12/20 00:49:41;;;;;;;4.93;1.60;;;;;;;18.93;41.15;101247.59;5005559;28;20045;-68
2022/12/20 00:52:06;;;;;;;3.58;1.52;;;;;;;18.89;41.11;101247.00;5023673;28;20033;-70
2022/12/20 00:54:32;;;;;;;4.65;1.67;;;;;;;18.89;40.85;101257.56;5023526;28;20270;-69
2022/12/20 00:56:57;;;;;;;4.43;1.70;;;;;;;18.88;40.87;101252.41;5023400;28;20034;-68
2022/12/20 00:59:22;;;;;;;5.22;2.00;;;;;;;18.90;40.94;101255.78;5023586;28;20029;-68
2022/12/20 01:01:48;;;;;;;4.05;1.60;;;;;;;18.87;41.10;101250.72;5023313;28;20033;-69
2022/12/20 01:04:14;;;;;;;4.22;1.90;;;;;;;18.85;41.03;101245.59;5023009;28;20489;-67
2022/12/20 01:06:39;;;;;;;4.00;1.60;;;;;;;18.87;40.88;101246.31;5023086;28;20041;-67
2022/12/20 01:09:05;;;;;;;4.30;1.65;;;;;;;18.89;40.85;101259.38;5022991;28;20036;-68
2022/12/20 01:11:35;;;;;;;4.63;1.92;;;;;;;18.86;40.83;101257.81;5023200;28;20079;-68
2022/12/20 01:14:06;;;;;;;3.53;1.73;;;;;;;18.83;41.14;101268.59;5023450;28;20036;-68
2022/12/20 01:16:37;;;;;;;4.30;1.75;;;;;;;18.81;41.35;101266.06;5021342;28;20029;-69
2022/12/20 01:19:04;;;;;;;3.65;1.48;;;;;;;18.82;41.35;101261.63;5023116;28;20036;-68
2022/12/20 01:21:30;;;;;;;5.38;1.75;;;;;;;18.81;41.12;101252.84;5023535;28;20041;-68
2022/12/20 01:23:56;;;;;;;4.85;1.90;;;;;;;18.83;41.41;101252.75;5023082;28;20037;-69
2022/12/20 01:26:23;;;;;;;4.57;1.80;;;;;;;18.79;41.24;101260.06;5023063;28;20029;-68
2022/12/20 01:28:53;;;;;;;5.13;2.05;;;;;;;18.79;41.35;101260.06;5022737;28;20033;-69
2022/12/20 01:31:20;;;;;;;4.15;1.90;;;;;;;18.79;41.33;101254.78;5022810;28;20091;-68
2022/12/20 01:33:47;;;;;;;3.58;1.50;;;;;;;18.77;41.35;101264.63;5022330;28;20033;-68
2022/12/20 01:36:15;;;;;;;4.03;1.50;;;;;;;18.78;41.55;101261.00;5022590;28;20068;-69
2022/12/20 01:38:41;;;;;;;4.03;1.77;;;;;;;18.78;41.92;101245.16;5023141;28;20546;-69
2022/12/20 01:41:06;;;;;;;4.15;1.83;;;;;;;18.76;41.72;101235.72;5022251;28;20152;-68
2022/12/20 01:43:56;;;;;;;3.60;1.65;;;;;;;18.79;41.84;101240.75;5022377;28;20117;-67
2022/12/20 01:46:24;;;;;;;3.35;1.60;;;;;;;18.75;41.57;101241.94;5022684;28;20033;-67
2022/12/20 01:49:05;;;;;;;4.75;1.98;;;;;;;18.77;41.76;101243.50;5022831;28;20099;-66
2022/12/20 01:51:35;;;;;;;5.03;1.65;;;;;;;18.76;41.74;101233.06;5021886;28;20033;-68
2022/12/20 01:54:07;;;;;;;4.43;1.77;;;;;;;18.71;41.77;101208.78;5022132;28;20068;-69
2022/12/20 01:56:33;;;;;;;4.55;1.70;;;;;;;18.76;41.98;101225.16;5022156;28;20037;-68
2022/12/20 01:58:59;;;;;;;4.65;2.00;;;;;;;18.73;41.75;101207.72;5022089;28;20091;-68
2022/12/20 02:01:24;;;;;;;4.15;1.63;;;;;;;18.71;41.81;101212.31;5022302;28;20025;-68
2022/12/20 02:03:52;;;;;;;5.00;1.98;;;;;;;18.74;42.21;101208.56;5022581;28;20033;-69
2022/12/20 02:06:20;;;;;;;3.92;1.80;;;;;;;18.70;42.03;101220.34;5022031;28;20037;-67
2022/12/20 02:08:48;;;;;;;5.30;1.77;;;;;;;18.70;41.92;101218.53;5022117;28;20112;-69
2022/12/20 02:11:35;;;;;;;3.90;1.70;;;;;;;18.72;42.08;101223.69;5021703;28;20029;-69
2022/12/20 02:14:35;;;;;;;6.35;1.95;;;;;;;18.72;42.14;101210.50;5022237;28;20459;-69
2022/12/20 02:17:22;;;;;;;6.18;1.88;;;;;;;18.71;42.03;101201.75;5021454;28;20446;-69
2022/12/20 02:20:06;;;;;;;4.35;1.67;;;;;;;18.70;42.15;101193.94;5021889;28;20124;-68
2022/12/20 02:23:05;;;;;;;5.22;1.83;;;;;;;18.71;42.17;101196.47;5021614;28;20901;-68
2022/12/20 02:25:52;;;;;;;3.78;1.52;;;;;;;18.67;42.22;101168.59;5021754;28;20129;-68
2022/12/20 02:29:10;;;;;;;4.60;1.50;;;;;;;18.65;42.13;101178.47;5021638;28;20454;-69
2022/12/20 02:31:56;;;;;;;3.97;1.40;;;;;;;18.67;41.98;101193.22;5021954;28;20094;-68
2022/12/20 02:34:24;;;;;;;5.47;1.80;;;;;;;18.62;42.06;101183.97;5021380;28;20380;-68
2022/12/20 02:36:50;;;;;;;3.78;1.30;;;;;;;18.63;42.08;101173.28;5020920;28;20142;-69
2022/12/20 02:39:16;;;;;;;4.05;1.60;;;;;;;18.65;42.04;101179.28;5021942;28;20025;-69
2022/12/20 02:41:48;;;;;;;3.53;1.50;;;;;;;18.60;42.06;101168.25;5021397;28;20874;-68
2022/12/20 02:47:05;;;;;;;5.70;1.60;;;;;;;18.64;42.17;101171.50;5021240;28;20083;-70
2022/12/20 02:49:37;;;;;;;4.28;1.60;;;;;;;18.61;42.42;101172.59;5021348;28;20041;-68
2022/12/20 02:52:04;;;;;;;3.15;1.30;;;;;;;18.64;42.01;101163.56;5021095;28;20044;-68
2022/12/20 02:54:31;;;;;;;4.13;1.50;;;;;;;18.62;41.94;101163.69;5021568;28;20076;-70
2022/12/20 02:57:07;;;;;;;2.55;1.23;;;;;;;18.61;42.29;101164.66;5021115;28;20053;-69
2022/12/20 02:59:42;;;;;;;3.88;1.52;;;;;;;18.60;42.08;101155.06;5020925;28;20037;-68
2022/12/20 03:02:09;;;;;;;3.08;1.38;;;;;;;18.64;42.11;101167.06;5021276;28;20124;-68
2022/12/20 03:04:38;;;;;;;2.72;1.10;;;;;;;18.62;42.25;101158.41;5020997;28;20038;-68
2022/12/20 03:07:07;;;;;;;4.57;1.30;;;;;;;18.62;41.88;101163.69;5021478;28;20417;-68
2022/12/20 03:09:35;;;;;;;4.55;1.30;;;;;;;18.59;42.17;101163.91;5020964;28;20397;-68
2022/12/20 03:12:00;;;;;;;4.50;1.35;;;;;;;18.62;42.32;101161.03;5020716;28;20037;-68
2022/12/20 03:14:26;;;;;;;3.60;1.35;;;;;;;18.59;42.13;101169.19;5021145;28;20040;-68
2022/12/20 03:16:52;;;;;;;2.67;1.30;;;;;;;18.59;42.20;101166.56;5020995;28;20490;-68
2022/12/20 03:19:17;;;;;;;3.75;1.42;;;;;;;18.59;42.28;101163.91;5021091;28;20457;-67
2022/12/20 03:21:43;;;;;;;3.15;1.40;;;;;;;18.62;42.07;101171.59;5021207;28;20432;-68
2022/12/20 03:24:10;;;;;;;2.95;1.25;;;;;;;18.61;42.16;101158.53;5021126;28;20152;-67
2022/12/20 03:26:35;;;;;;;3.08;1.48;;;;;;;18.57;42.26;101150.00;5020433;28;20025;-68
2022/12/20 03:29:01;;;;;;;3.53;1.58;;;;;;;18.57;42.04;101155.28;5020252;28;20472;-69
2022/12/20 03:31:26;;;;;;;4.10;1.30;;;;;;;18.59;41.99;101148.09;5021122;28;20044;-68
2022/12/20 03:33:51;;;;;;;2.60;1.10;;;;;;;18.55;41.83;101141.38;5019354;28;20541;-69
2022/12/20 03:36:22;;;;;;;4.38;1.50;;;;;;;18.57;42.12;101146.53;5018354;28;20046;-69
2022/12/20 03:38:47;;;;;;;2.97;1.30;;;;;;;18.57;42.11;101157.09;5020576;28;20022;-69
2022/12/20 03:41:12;;;;;;;2.53;1.13;;;;;;;18.57;42.24;101162.38;5020434;28;20390;-68
2022/12/20 03:43:38;;;;;;;4.57;1.50;;;;;;;18.57;41.96;101165.03;5021193;28;20036;-67
2022/12/20 03:46:03;;;;;;;3.05;1.27;;;;;;;18.53;42.48;101153.00;5020112;28;20348;-68
2022/12/20 03:48:28;;;;;;;3.33;1.25;;;;;;;18.53;42.37;101159.13;5020928;28;20037;-68
2022/12/20 03:50:54;;;;;;;2.67;1.20;;;;;;;18.54;42.43;101165.25;5021008;28;20041;-68
2022/12/20 03:53:19;;;;;;;3.35;1.38;;;;;;;18.52;42.17;101154.81;5020610;28;20033;-67
2022/12/20 03:55:44;;;;;;;3.25;1.40;;;;;;;18.53;42.45;101158.28;5017561;28;20033;-68
2022/12/20 03:58:10;;;;;;;2.78;1.20;;;;;;;18.54;42.29;101154.69;5020640;28;20036;-68
2022/12/20 04:00:35;;;;;;;2.90;1.40;;;;;;;18.52;42.33;101157.47;5020277;28;20480;-69
2022/12/20 04:03:00;;;;;;;3.55;1.65;;;;;;;18.52;42.21;101154.81;5020761;28;20033;-68
2022/12/20 04:05:25;;;;;;;3.45;1.38;;;;;;;18.50;42.27;101146.19;5020237;28;20117;-68
2022/12/20 04:07:51;;;;;;;3.03;1.38;;;;;;;18.53;42.42;101150.38;5019506;28;20029;-69
2022/12/20 04:10:16;;;;;;;2.60;1.20;;;;;;;18.54;42.34;101157.34;5019800;28;20111;-70
2022/12/20 04:12:41;;;;;;;3.40;1.27;;;;;;;18.49;42.48;101147.97;5020457;28;20258;-68
2022/12/20 04:15:07;;;;;;;2.88;1.20;;;;;;;18.49;42.05;101147.97;5020020;28;20430;-68
2022/12/20 04:17:32;;;;;;;3.03;1.27;;;;;;;18.48;42.51;101140.16;5023141;28;20124;-68
2022/12/20 04:19:57;;;;;;;3.80;1.13;;;;;;;18.48;42.49;101141.03;5023407;28;20037;-68
2022/12/20 04:22:23;;;;;;;3.43;1.53;;;;;;;18.53;42.24;101156.47;5023107;28;20267;-69
2022/12/20 04:24:48;;;;;;;3.15;1.30;;;;;;;18.52;42.01;101143.41;5023391;28;20312;-69
2022/12/20 04:27:13;;;;;;;3.33;1.30;;;;;;;18.53;42.08;101147.72;5024161;28;20028;-68
2022/12/20 04:29:39;;;;;;;2.40;1.07;;;;;;;18.53;42.51;101153.84;5024030;28;20821;-69
2022/12/20 04:32:04;;;;;;;2.95;1.40;;;;;;;18.50;42.19;101122.44;5022883;28;20978;-70
2022/12/20 04:34:29;;;;;;;3.25;1.35;;;;;;;18.52;42.25;101149.53;5023911;28;20025;-69
2022/12/20 04:36:54;;;;;;;2.97;1.20;;;;;;;18.49;42.40;101133.94;5023102;28;21221;-69
2022/12/20 04:39:22;;;;;;;2.63;1.20;;;;;;;18.49;42.30;101132.13;5023603;28;20259;-69
2022/12/20 04:41:47;;;;;;;2.95;1.20;;;;;;;18.47;42.07;101130.59;5023242;28;20033;-67
2022/12/20 04:44:13;;;;;;;2.23;1.13;;;;;;;18.45;42.33;101125.44;5023642;28;20032;-69
2022/12/20 04:46:38;;;;;;;2.35;1.13;;;;;;;18.52;42.37;101132.84;5020228;28;20278;-69
2022/12/20 04:49:03;;;;;;;2.25;1.10;;;;;;;18.50;42.25;101133.00;5024003;28;20083;-68
2022/12/20 04:51:29;;;;;;;3.47;1.40;;;;;;;18.49;42.29;101129.50;5022522;28;20033;-67
2022/12/20 04:53:55;;;;;;;3.05;1.10;;;;;;;18.50;42.45;101140.91;5023888;28;20390;-69
2022/12/20 04:56:24;;;;;;;2.22;1.05;;;;;;;18.47;42.40;101138.50;5023099;28;20037;-69
2022/12/20 04:58:52;;;;;;;2.70;1.05;;;;;;;18.47;42.35;101139.34;5023276;28;20431;-69
2022/12/20 05:01:18;;;;;;;4.53;1.38;;;;;;;18.47;42.26;101117.41;5023535;28;20833;-69
2022/12/20 05:03:45;;;;;;;4.07;1.30;;;;;;;18.46;42.46;101126.25;5023193;28;20098;-68
2022/12/20 05:06:10;;;;;;;1.75;1.08;;;;;;;18.48;42.41;101121.69;5008717;28;20033;-66
2022/12/20 05:08:36;;;;;;;2.33;1.00;;;;;;;18.46;42.50;101115.72;5023241;28;20038;-67
2022/12/20 05:11:02;;;;;;;2.65;1.20;;;;;;;18.46;42.34;101115.72;5023143;28;20041;-69
2022/12/20 05:13:27;;;;;;;2.97;1.17;;;;;;;18.43;42.23;101108.84;5023013;28;20044;-68
2022/12/20 05:15:55;;;;;;;2.97;1.23;;;;;;;18.47;42.40;101109.47;5022801;28;20029;-67
2022/12/20 05:18:20;;;;;;;3.45;1.40;;;;;;;18.44;42.37;101105.28;5022909;28;20029;-68
2022/12/20 05:20:46;;;;;;;2.88;1.17;;;;;;;18.47;42.38;101102.41;5022726;28;20393;-68
2022/12/20 05:28:40;;;;;;;2.50;1.10;;;;;;;18.44;42.56;101081.53;5022970;28;20452;-68
2022/12/20 05:31:06;;;;;;;2.57;1.10;;;;;;;18.45;42.43;101088.50;5023084;28;20041;-67
2022/12/20 05:33:31;;;;;;;2.80;1.25;;;;;;;18.42;42.61;101083.44;5022881;28;20258;-67
2022/12/20 05:35:56;;;;;;;3.83;1.48;;;;;;;18.43;42.59;101089.56;5022888;28;20033;-67
2022/12/20 05:38:23;;;;;;;2.30;1.10;;;;;;;18.43;42.45;101086.91;5022217;28;20513;-68
2022/12/20 05:40:50;;;;;;;4.05;1.10;;;;;;;18.42;42.56;101075.53;5018466;28;20397;-67
2022/12/20 05:43:16;;;;;;;2.95;1.20;;;;;;;18.41;42.38;101076.47;5023172;28;20431;-67
2022/12/20 05:45:50;;;;;;;4.88;1.20;;;;;;;18.43;42.44;101079.84;5022423;28;20124;-68
2022/12/20 05:48:17;;;;;;;3.03;1.10;;;;;;;18.41;42.46;101073.84;5020520;28;20374;-67
2022/12/20 05:50:43;;;;;;;2.70;1.00;;;;;;;18.41;42.71;101071.22;5021685;28;20041;-68
2022/12/20 05:53:13;;;;;;;3.50;1.40;;;;;;;18.42;42.68;101074.69;5022155;28;20426;-69
2022/12/20 05:55:49;;;;;;;3.13;1.30;;;;;;;18.40;42.52;101066.88;5022380;28;20037;-68
2022/12/20 05:58:14;;;;;;;2.55;1.00;;;;;;;18.44;42.39;101067.50;5021917;28;20052;-67
2022/12/20 06:00:41;;;;;;;3.10;1.40;;;;;;;18.42;42.34;101053.56;5021962;28;20462;-67
2022/12/20 06:03:08;;;;;;;3.38;1.30;;;;;;;18.40;42.38;101053.69;5021828;28;20037;-68
2022/12/20 06:05:34;;;;;;;2.75;1.20;;;;;;;18.39;42.50;101037.97;5022039;28;20126;-69
2022/12/20 06:07:59;;;;;;;2.90;1.20;;;;;;;18.41;42.37;101028.16;5022348;28;20116;-69
2022/12/20 06:10:24;;;;;;;3.20;1.10;;;;;;;18.42;42.11;101016.63;5022268;28;20037;-68
2022/12/20 06:12:50;;;;;;;2.65;1.20;;;;;;;18.47;42.29;101017.94;5021956;28;20037;-69
2022/12/20 06:15:15;;;;;;;2.83;1.00;;;;;;;18.45;42.07;101014.59;5021766;28;20462;-68
2022/12/20 06:17:41;;;;;;;2.17;1.00;;;;;;;18.54;42.45;101022.72;5021307;28;20048;-69
2022/12/20 06:20:07;;;;;;;2.78;1.00;;;;;;;18.54;42.13;101017.47;5021394;28;20567;-68
2022/12/20 06:22:32;;;;;;;2.05;0.95;;;;;;;18.57;42.44;101015.41;5022026;28;20033;-70
2022/12/20 06:24:58;;;;;;;2.90;1.02;;;;;;;18.64;42.53;101023.66;5022022;28;20083;-69
2022/12/20 06:27:23;;;;;;;3.28;1.10;;;;;;;18.68;42.35;101025.94;5021328;28;20026;-68
2022/12/20 06:29:53;;;;;;;2.22;0.90;;;;;;;18.72;42.48;101023.88;5021235;28;20025;-69
2022/12/20 06:32:18;;;;;;;2.40;1.00;;;;;;;18.74;42.44;101023.75;5021826;28;20034;-68
2022/12/20 06:34:44;;;;;;;3.13;1.02;;;;;;;18.80;42.26;101031.19;5021481;28;20367;-66
2022/12/20 06:37:09;;;;;;;2.53;1.00;;;;;;;18.84;42.31;101037.94;5021288;28;20099;-67
2022/12/20 06:39:34;;;;;;;2.40;0.90;;;;;;;18.83;42.03;101031.78;5020643;28;20112;-67
2022/12/20 06:42:00;;;;;;;2.55;1.10;;;;;;;18.86;42.11;101022.78;5021630;28;20032;-67
2022/12/20 06:44:25;;;;;;;1.80;0.90;;;;;;;18.91;41.99;101025.06;5021449;28;20105;-68
2022/12/20 06:46:50;;;;;;;2.80;1.05;;;;;;;18.89;42.07;101027.00;5021414;28;20124;-68
2022/12/20 06:49:16;;;;;;;1.75;0.90;;;;;;;18.89;42.12;101022.53;5021050;28;20059;-67
2022/12/20 06:51:41;;;;;;;2.20;1.10;;;;;;;18.89;41.99;101017.25;5021675;28;20038;-69
2022/12/20 06:54:06;;;;;;;3.08;1.25;;;;;;;18.92;41.96;101026.75;5020476;28;20068;-68
2022/12/20 06:56:32;;;;;;;3.13;1.05;;;;;;;18.96;42.11;101028.16;5021175;28;20040;-67
2022/12/20 06:58:57;;;;;;;2.50;0.88;;;;;;;18.97;41.87;101037.78;5020909;28;20037;-69
2022/12/20 07:01:22;;;;;;;2.47;1.10;;;;;;;18.95;41.97;101037.06;5020742;28;20022;-67
2022/12/20 07:03:48;;;;;;;2.35;0.82;;;;;;;18.95;42.00;101029.97;5020969;28;20041;-68
2022/12/20 07:06:13;;;;;;;2.13;0.98;;;;;;;18.98;42.09;101034.16;5020875;28;20655;-68
2022/12/20 07:08:38;;;;;;;2.15;1.00;;;;;;;19.02;41.95;101038.22;5021220;28;20461;-67
2022/12/20 07:11:05;;;;;;;2.10;0.90;;;;;;;19.00;41.95;101029.59;5020995;28;20521;-68
2022/12/20 07:13:30;;;;;;;2.67;1.15;;;;;;;19.03;42.00;101035.47;5021293;28;20037;-68
2022/12/20 07:16:00;;;;;;;2.30;0.80;;;;;;;19.03;41.92;101027.53;5020735;28;20108;-68
2022/12/20 07:18:26;;;;;;;1.90;0.90;;;;;;;19.08;41.75;101040.38;5020499;28;20052;-66
2022/12/20 07:20:51;;;;;;;3.28;1.10;;;;;;;19.10;41.98;101037.59;5021347;28;20417;-67
2022/12/20 07:23:17;;;;;;;1.80;0.85;;;;;;;19.10;41.98;101040.25;5020987;28;20052;-68
2022/12/20 07:25:43;;;;;;;1.88;0.90;;;;;;;19.07;41.76;101032.56;5021329;28;20037;-67
2022/12/20 07:28:08;;;;;;;2.47;1.13;;;;;;;19.09;42.06;101035.91;5020363;28;20034;-68
2022/12/20 07:30:34;;;;;;;1.70;0.82;;;;;;;19.09;41.71;101039.41;5020629;28;20481;-68
2022/12/20 07:32:59;;;;;;;2.15;0.88;;;;;;;19.10;41.95;101038.44;5020800;28;20517;-68
2022/12/20 07:35:25;;;;;;;3.03;1.13;;;;;;;19.11;41.82;101041.94;5020611;28;20030;-68
2022/12/20 07:37:50;;;;;;;1.83;0.90;;;;;;;19.09;41.87;101036.78;5020594;28;20053;-68
2022/12/20 07:40:16;;;;;;;2.42;0.90;;;;;;;19.15;41.79;101051.25;5019825;28;20265;-68
2022/12/20 07:42:41;;;;;;;1.35;0.80;;;;;;;19.13;41.96;101055.84;5020768;28;20041;-68
2022/12/20 07:45:07;;;;;;;2.22;0.88;;;;;;;19.15;41.71;101057.41;5020915;28;20034;-68
2022/12/20 07:47:34;;;;;;;2.80;1.10;;;;;;;19.15;41.79;101048.63;5020620;28;20478;-69
2022/12/20 07:50:00;;;;;;;2.75;1.00;;;;;;;19.17;41.82;101052.00;5022239;28;20044;-69
2022/12/20 07:52:28;;;;;;;2.58;0.90;;;;;;;19.14;41.55;101052.25;5025373;28;20038;-69
2022/12/20 07:54:58;;;;;;;1.67;0.80;;;;;;;19.15;41.61;101059.19;5024817;28;20037;-68
2022/12/20 07:57:38;;;;;;;2.60;1.00;;;;;;;19.17;41.62;101067.84;5024447;28;20041;-67
2022/12/20 08:00:04;;;;;;;2.17;0.90;;;;;;;19.12;41.66;101057.66;5024049;28;20082;-66
2022/12/20 08:02:38;;;;;;;2.00;0.80;;;;;;;19.15;41.56;101069.75;5024181;28;20136;-67
2022/12/20 08:05:06;;;;;;;1.73;0.80;;;;;;;19.17;41.75;101071.31;5024648;28;20037;-67
2022/12/20 08:07:32;;;;;;;2.67;1.10;;;;;;;19.15;41.86;101059.19;5023816;28;20060;-69
2022/12/20 08:09:57;;;;;;;3.20;1.02;;;;;;;19.14;41.43;101055.72;5024524;28;20076;-72
2022/12/20 08:12:26;;;;;;;2.40;1.00;;;;;;;19.16;41.78;101059.06;5024095;28;20067;-66
2022/12/20 08:14:55;;;;;;;2.28;1.00;;;;;;;19.16;41.65;101061.69;5023634;28;20478;-69
2022/12/20 08:17:21;;;;;;;2.28;0.90;;;;;;;19.18;41.92;101053.66;5024010;28;20037;-66
2022/12/20 08:19:47;;;;;;;2.33;0.95;;;;;;;19.22;41.88;101057.72;5024570;28;20030;-68
2022/12/20 08:22:13;;;;;;;2.70;0.90;;;;;;;19.22;42.10;101063.00;5022211;28;20029;-67
2022/12/20 08:24:38;;;;;;;1.75;0.90;;;;;;;19.19;42.27;101058.81;5023934;28;20440;-69
2022/12/20 08:27:04;;;;;;;2.55;1.00;;;;;;;19.23;42.40;101061.19;5023958;28;20855;-68
2022/12/20 08:29:29;;;;;;;2.15;1.00;;;;;;;19.24;42.60;101066.34;5023231;28;20045;-69
2022/12/20 08:31:54;;;;;;;3.00;0.90;;;;;;;19.21;42.60;101059.50;5023396;28;21115;-69
2022/12/20 08:34:20;;;;;;;3.60;1.25;;;;;;;19.22;42.74;101060.38;5024240;28;20025;-70
2022/12/20 08:36:45;;;;;;;2.45;1.00;;;;;;;19.23;42.94;101059.38;5023406;28;20060;-70
2022/12/20 08:39:10;;;;;;;2.15;0.88;;;;;;;19.29;42.66;101065.97;5023970;28;20033;-66
2022/12/20 08:41:36;;;;;;;2.47;0.93;;;;;;;19.26;42.82;101055.66;5023729;28;20040;-66
2022/12/20 08:44:03;;;;;;;2.30;0.98;;;;;;;19.30;42.84;101051.81;5023657;28;20088;-67
2022/12/20 08:46:28;;;;;;;2.10;0.93;;;;;;;19.30;43.04;101050.00;5023629;28;20111;-69
2022/12/20 08:48:54;;;;;;;1.73;0.80;;;;;;;19.33;43.28;101049.75;5023461;28;20817;-69
2022/12/20 08:51:19;;;;;;;5.63;0.85;;;;;;;19.32;43.39;101049.88;5023912;28;20040;-70
2022/12/20 08:53:45;;;;;;;2.38;1.00;;;;;;;19.31;43.31;101038.47;5023464;28;20323;-67
2022/12/20 08:56:15;;;;;;;4.25;0.90;;;;;;;19.31;43.25;101040.25;5023737;28;20059;-67
2022/12/20 08:58:42;;;;;;;2.55;1.00;;;;;;;19.32;43.25;101040.13;5023342;28;20035;-68
2022/12/20 09:01:11;;;;;;;2.85;0.90;;;;;;;19.36;43.52;101046.84;5022447;28;20087;-69
2022/12/20 09:03:37;;;;;;;2.35;1.00;;;;;;;19.35;43.60;101039.06;5023475;28;20069;-69
2022/12/20 09:06:09;;;;;;;2.58;0.98;;;;;;;19.31;43.53;101040.25;5019852;28;20030;-69
2022/12/20 09:08:36;;;;;;;3.05;1.00;;;;;;;19.32;43.83;101026.91;5023368;28;20037;-70
2022/12/20 09:11:13;;;;;;;2.33;0.98;;;;;;;19.37;43.74;101026.53;5023714;28;20064;-67
2022/12/20 09:13:40;;;;;;;3.00;0.80;;;;;;;19.35;43.62;101017.91;5022967;28;20544;-68
2022/12/20 09:16:06;;;;;;;3.85;0.93;;;;;;;19.37;43.76;101024.72;5023020;28;20040;-68
2022/12/20 09:18:33;;;;;;;3.97;1.10;;;;;;;19.36;43.84;101028.34;5023315;28;20041;-67
2022/12/20 09:21:00;;;;;;;2.85;1.10;;;;;;;19.37;43.74;101027.38;5023050;28;20091;-68
2022/12/20 09:23:25;;;;;;;1.77;0.90;;;;;;;19.36;43.58;101022.25;5023105;28;20068;-68
2022/12/20 09:25:51;;;;;;;2.25;0.90;;;;;;;19.37;43.69;101027.38;5022630;28;20060;-68
2022/12/20 09:28:16;;;;;;;2.17;0.80;;;;;;;19.39;43.43;101036.03;5018399;28;20064;-73
2022/12/20 09:30:41;;;;;;;4.25;0.90;;;;;;;19.39;43.41;101027.25;5021810;28;20037;-71
2022/12/20 09:33:07;;;;;;;3.65;0.82;;;;;;;19.43;43.62;101035.78;5022624;28;20058;-71
2022/12/20 09:35:32;;;;;;;2.47;1.00;;;;;;;19.38;43.42;101022.94;5021834;28;20056;-69
2022/12/20 09:37:58;;;;;;;2.88;1.00;;;;;;;19.41;43.59;101027.97;5022311;28;20053;-78
2022/12/20 09:40:28;;;;;;;2.95;0.98;;;;;;;19.44;43.43;101030.34;5021145;28;20235;-73
2022/12/20 09:42:54;;;;;;;3.30;1.02;;;;;;;19.42;43.39;101019.06;5021610;28;20033;-70
2022/12/20 09:45:27;;;;;;;1.77;0.90;;;;;;;19.43;43.38;101031.31;5022073;28;20037;-73
2022/12/20 09:47:52;;;;;;;3.72;1.08;;;;;;;19.44;43.60;101027.72;5021444;28;20095;-73
2022/12/20 09:50:20;;;;;;;2.92;1.00;;;;;;;19.43;43.72;101031.31;5021217;28;20481;-74
2022/12/20 09:53:22;;;;;;;2.92;1.10;;;;;;;19.40;43.47;101024.47;5021512;28;20087;-73
2022/12/20 09:56:02;;;;;;;6.70;1.25;;;;;;;19.45;43.56;101018.78;5021788;28;20132;-72
2022/12/20 09:58:30;;;;;;;2.63;0.90;;;;;;;19.47;43.28;101027.47;5021707;28;20045;-70
2022/12/20 10:00:57;;;;;;;3.17;0.90;;;;;;;19.44;43.34;101027.72;5021544;28;20045;-68
2022/12/20 10:03:26;;;;;;;1.73;0.80;;;;;;;19.43;43.65;101019.91;5021825;28;20150;-66
2022/12/20 10:05:53;;;;;;;1.42;0.80;;;;;;;19.37;43.78;101008.03;5020853;28;20037;-70
2022/12/20 10:09:10;;;;;;;5.88;1.10;;;;;;;19.49;43.64;101025.50;5020451;28;20047;-75
2022/12/20 10:11:59;;;;;;;2.45;1.00;;;;;;;19.45;43.84;101024.09;5008473;28;20045;-70
2022/12/20 10:14:45;;;;;;;2.92;0.90;;;;;;;19.46;43.99;101020.47;5020500;28;20044;-72
2022/12/20 10:17:26;;;;;;;4.30;1.00;;;;;;;19.42;43.73;101011.13;5020728;28;20059;-75
2022/12/20 10:20:22;;;;;;;4.78;2.40;;;;;;;19.46;43.50;101015.19;5021068;28;20071;-74
2022/12/20 10:23:03;;;;;;;1.95;0.88;;;;;;;19.45;43.62;101026.72;5021330;28;20029;-72
2022/12/20 10:25:32;;;;;;;3.83;1.10;;;;;;;19.45;43.69;101024.09;5021353;28;20523;-72
2022/12/20 10:28:01;;;;;;;3.55;1.08;;;;;;;19.47;43.49;101018.66;5020786;28;20022;-74
2022/12/20 10:30:28;;;;;;;2.85;0.90;;;;;;;19.46;43.86;101017.84;5020116;28;20118;-68
2022/12/20 10:32:56;;;;;;;3.78;0.90;;;;;;;19.49;43.83;101025.50;5021333;28;20144;-69
2022/12/20 10:35:39;;;;;;;3.03;0.90;;;;;;;19.50;43.75;101026.34;5041230;28;21273;-68
2022/12/20 10:38:06;;;;;;;2.70;0.95;;;;;;;19.49;43.76;101025.50;5037559;28;20132;-68
2022/12/20 10:40:35;;;;;;;3.97;0.98;;;;;;;19.49;43.98;101020.22;5037144;28;20033;-69
2022/12/20 10:43:02;;;;;;;5.45;1.13;;;;;;;19.44;43.95;101014.50;5036280;28;20043;-73
2022/12/20 10:45:39;;;;;;;3.28;1.05;;;;;;;19.46;44.08;101017.84;5037636;28;20088;-73
2022/12/20 10:48:24;;;;;;;3.58;1.00;;;;;;;19.45;43.97;101007.41;5037803;28;20485;-75
2022/12/20 10:51:18;;;;;;;4.47;0.93;;;;;;;19.51;44.21;101009.53;5034155;28;20041;-70
2022/12/20 10:53:55;;;;;;;2.35;0.80;;;;;;;19.49;44.06;101012.28;5034805;28;20492;-73
2022/12/20 10:56:20;;;;;;;2.17;0.90;;;;;;;19.49;44.12;100995.63;5035747;28;20091;-71
2022/12/20 10:59:17;;;;;;;3.15;1.00;;;;;;;19.49;44.08;100992.97;5035159;28;20037;-68
2022/12/20 11:01:45;;;;;;;2.78;0.75;;;;;;;19.47;43.92;100979.03;4981704;28;20055;-72
2022/12/20 11:04:32;;;;;;;2.80;1.00;;;;;;;19.49;44.03;100992.97;5037863;28;20112;-69
2022/12/20 11:07:00;;;;;;;2.83;1.00;;;;;;;19.51;43.93;101004.25;5021785;28;20086;-72
2022/12/20 11:09:35;;;;;;;3.75;0.95;;;;;;;19.47;43.82;101000.16;5028284;28;20041;-72
2022/12/20 11:12:15;;;;;;;3.13;1.10;;;;;;;19.48;43.92;100996.56;5017891;28;20482;-70
2022/12/20 11:14:43;;;;;;;2.80;1.10;;;;;;;19.46;43.79;100994.06;5034673;28;20056;-72
2022/12/20 11:17:11;;;;;;;2.38;0.93;;;;;;;19.47;43.79;100993.09;5025954;28;20033;-71
2022/12/20 11:19:43;;;;;;;3.20;1.08;;;;;;;19.47;44.02;100995.75;5025471;28;20045;-71
2022/12/20 11:22:31;;;;;;;1.75;0.85;;;;;;;19.47;43.98;100993.09;5032731;28;20091;-70
2022/12/20 11:25:27;;;;;;;3.30;0.90;;;;;;;19.46;44.03;100988.78;5022793;28;20049;-72
2022/12/20 11:28:13;;;;;;;2.72;0.90;;;;;;;19.43;44.19;100994.31;5016890;28;20037;-71
2022/12/20 11:30:56;;;;;;;2.65;1.00;;;;;;;19.40;43.96;100991.94;5024228;28;20098;-69
2022/12/20 11:33:35;;;;;;;4.25;0.95;;;;;;;19.43;44.06;100989.03;5029033;28;20058;-71
2022/12/20 11:36:55;;;;;;;2.42;1.00;;;;;;;19.43;43.93;100983.75;5027652;28;20180;-68
2022/12/20 11:39:46;;;;;;;3.88;1.20;;;;;;;19.38;44.17;100984.13;4991103;28;20055;-69
2022/12/20 11:42:41;;;;;;;2.95;1.15;;;;;;;19.40;44.45;100978.72;5021655;28;20541;-70